sensor_id;sensor_type;location;lat;lon;timestamp;P1;durP1;ratioP1;P2;durP2;ratioP2
37693;SDS011;23531;50.122;8.644;2024-02-26T00:01:56;3.05;;;1.70;;
37693;SDS011;23531;50.122;8.644;2024-02-26T00:03:58;2.45;;;1.48;;
37693;SDS011;23531;50.122;8.644;2024-02-26T00:06:00;2.97;;;1.88;;
37693;SDS011;23531;50.122;8.644;2024-02-26T00:08:01;1.98;;;1.40;;
37693;SDS011;23531;50.122;8.644;2024-02-26T00:10:03;2.75;;;1.77;;
37693;SDS011;23531;50.122;8.644;2024-02-26T00:12:05;2.53;;;1.40;;
37693;SDS011;23531;50.122;8.644;2024-02-26T00:14:06;1.63;;;1.42;;
37693;SDS011;23531;50.122;8.644;2024-02-26T00:16:08;3.47;;;1.85;;
37693;SDS011;23531;50.122;8.644;2024-02-26T00:18:10;3.85;;;2.13;;
37693;SDS011;23531;50.122;8.644;2024-02-26T00:20:11;2.00;;;1.40;;
37693;SDS011;23531;50.122;8.644;2024-02-26T00:22:13;1.90;;;1.40;;
37693;SDS011;23531;50.122;8.644;2024-02-26T00:24:15;4.05;;;1.42;;
37693;SDS011;23531;50.122;8.644;2024-02-26T00:26:16;2.03;;;1.58;;
37693;SDS011;23531;50.122;8.644;2024-02-26T00:28:17;2.95;;;1.70;;
37693;SDS011;23531;50.122;8.644;2024-02-26T00:30:19;1.85;;;1.45;;
37693;SDS011;23531;50.122;8.644;2024-02-26T00:32:22;2.08;;;1.40;;
37693;SDS011;23531;50.122;8.644;2024-02-26T00:34:25;3.45;;;1.58;;
37693;SDS011;23531;50.122;8.644;2024-02-26T00:36:26;2.97;;;1.70;;
37693;SDS011;23531;50.122;8.644;2024-02-26T00:38:28;2.60;;;1.55;;
37693;SDS011;23531;50.122;8.644;2024-02-26T00:40:29;1.98;;;1.30;;
37693;SDS011;23531;50.122;8.644;2024-02-26T00:42:31;2.13;;;1.45;;
37693;SDS011;23531;50.122;8.644;2024-02-26T00:44:32;3.45;;;1.50;;
37693;SDS011;23531;50.122;8.644;2024-02-26T00:46:32;1.58;;;1.20;;
37693;SDS011;23531;50.122;8.644;2024-02-26T00:48:34;4.22;;;1.17;;
37693;SDS011;23531;50.122;8.644;2024-02-26T00:50:36;2.65;;;1.60;;
37693;SDS011;23531;50.122;8.644;2024-02-26T00:52:37;2.42;;;1.50;;
37693;SDS011;23531;50.122;8.644;2024-02-26T00:54:38;1.63;;;1.20;;
37693;SDS011;23531;50.122;8.644;2024-02-26T00:56:40;2.22;;;1.20;;
37693;SDS011;23531;50.122;8.644;2024-02-26T00:58:41;2.25;;;1.48;;
37693;SDS011;23531;50.122;8.644;2024-02-26T01:00:42;23.33;;;13.25;;
37693;SDS011;23531;50.122;8.644;2024-02-26T01:02:44;1.75;;;1.15;;
37693;SDS011;23531;50.122;8.644;2024-02-26T01:04:46;1.85;;;1.33;;
37693;SDS011;23531;50.122;8.644;2024-02-26T01:06:49;2.47;;;1.40;;
37693;SDS011;23531;50.122;8.644;2024-02-26T01:08:50;2.67;;;1.42;;
37693;SDS011;23531;50.122;8.644;2024-02-26T01:10:52;1.90;;;1.38;;
37693;SDS011;23531;50.122;8.644;2024-02-26T01:12:53;3.70;;;1.48;;
37693;SDS011;23531;50.122;8.644;2024-02-26T01:14:54;2.15;;;1.52;;
37693;SDS011;23531;50.122;8.644;2024-02-26T01:16:56;2.72;;;1.77;;
37693;SDS011;23531;50.122;8.644;2024-02-26T01:18:56;1.83;;;1.50;;
37693;SDS011;23531;50.122;8.644;2024-02-26T01:20:57;2.10;;;1.40;;
37693;SDS011;23531;50.122;8.644;2024-02-26T01:22:59;3.92;;;1.70;;
37693;SDS011;23531;50.122;8.644;2024-02-26T01:25:00;3.55;;;1.52;;
37693;SDS011;23531;50.122;8.644;2024-02-26T01:27:01;2.15;;;1.70;;
37693;SDS011;23531;50.122;8.644;2024-02-26T01:29:02;1.88;;;1.63;;
37693;SDS011;23531;50.122;8.644;2024-02-26T01:31:03;3.22;;;1.90;;
37693;SDS011;23531;50.122;8.644;2024-02-26T01:33:06;2.35;;;1.85;;
37693;SDS011;23531;50.122;8.644;2024-02-26T01:35:08;2.33;;;1.70;;
37693;SDS011;23531;50.122;8.644;2024-02-26T01:37:11;2.90;;;1.73;;
37693;SDS011;23531;50.122;8.644;2024-02-26T01:39:14;2.63;;;1.77;;
37693;SDS011;23531;50.122;8.644;2024-02-26T01:41:16;2.35;;;1.83;;
37693;SDS011;23531;50.122;8.644;2024-02-26T01:43:17;2.90;;;2.10;;
37693;SDS011;23531;50.122;8.644;2024-02-26T01:45:18;2.08;;;1.58;;
37693;SDS011;23531;50.122;8.644;2024-02-26T01:47:23;4.65;;;1.90;;
37693;SDS011;23531;50.122;8.644;2024-02-26T01:49:27;2.83;;;1.75;;
37693;SDS011;23531;50.122;8.644;2024-02-26T01:51:29;4.18;;;2.10;;
37693;SDS011;23531;50.122;8.644;2024-02-26T01:53:31;4.38;;;1.80;;
37693;SDS011;23531;50.122;8.644;2024-02-26T01:55:34;2.17;;;1.92;;
37693;SDS011;23531;50.122;8.644;2024-02-26T01:57:36;4.00;;;2.03;;
37693;SDS011;23531;50.122;8.644;2024-02-26T01:59:37;3.70;;;2.15;;
37693;SDS011;23531;50.122;8.644;2024-02-26T02:01:39;2.40;;;1.70;;
37693;SDS011;23531;50.122;8.644;2024-02-26T11:23:00;11.85;;;5.72;;
37693;SDS011;23531;50.122;8.644;2024-02-26T11:25:02;7.10;;;4.90;;
37693;SDS011;23531;50.122;8.644;2024-02-26T11:27:03;8.93;;;5.63;;
37693;SDS011;23531;50.122;8.644;2024-02-26T11:29:07;9.30;;;5.30;;
37693;SDS011;23531;50.122;8.644;2024-02-26T11:31:11;10.10;;;5.68;;
37693;SDS011;23531;50.122;8.644;2024-02-26T11:33:14;8.85;;;5.78;;
37693;SDS011;23531;50.122;8.644;2024-02-26T11:35:16;9.18;;;5.55;;
37693;SDS011;23531;50.122;8.644;2024-02-26T11:37:18;12.50;;;7.43;;
37693;SDS011;23531;50.122;8.644;2024-02-26T11:39:22;7.95;;;5.22;;
37693;SDS011;23531;50.122;8.644;2024-02-26T11:41:23;9.48;;;5.53;;
37693;SDS011;23531;50.122;8.644;2024-02-26T11:43:37;9.73;;;5.97;;
37693;SDS011;23531;50.122;8.644;2024-02-26T11:45:51;9.57;;;5.55;;
37693;SDS011;23531;50.122;8.644;2024-02-26T11:47:57;8.82;;;5.40;;
37693;SDS011;23531;50.122;8.644;2024-02-26T11:49:58;9.68;;;5.82;;
37693;SDS011;23531;50.122;8.644;2024-02-26T11:51:59;9.07;;;5.50;;
37693;SDS011;23531;50.122;8.644;2024-02-26T11:54:03;8.48;;;5.50;;
37693;SDS011;23531;50.122;8.644;2024-02-26T11:56:24;9.48;;;6.55;;
37693;SDS011;23531;50.122;8.644;2024-02-26T11:58:31;9.68;;;4.82;;
37693;SDS011;23531;50.122;8.644;2024-02-26T12:00:31;9.30;;;5.65;;
37693;SDS011;23531;50.122;8.644;2024-02-26T12:02:40;9.38;;;5.72;;
37693;SDS011;23531;50.122;8.644;2024-02-26T12:04:45;8.27;;;5.65;;
37693;SDS011;23531;50.122;8.644;2024-02-26T12:06:47;7.82;;;5.32;;
37693;SDS011;23531;50.122;8.644;2024-02-26T12:08:52;7.60;;;4.20;;
37693;SDS011;23531;50.122;8.644;2024-02-26T12:10:54;6.57;;;4.55;;
37693;SDS011;23531;50.122;8.644;2024-02-26T12:13:07;5.85;;;4.25;;
37693;SDS011;23531;50.122;8.644;2024-02-26T12:15:13;8.10;;;5.50;;
37693;SDS011;23531;50.122;8.644;2024-02-26T12:17:18;9.50;;;4.93;;
37693;SDS011;23531;50.122;8.644;2024-02-26T12:19:20;7.30;;;4.80;;
37693;SDS011;23531;50.122;8.644;2024-02-26T12:21:22;9.02;;;5.55;;
37693;SDS011;23531;50.122;8.644;2024-02-26T12:23:24;10.05;;;5.00;;
37693;SDS011;23531;50.122;8.644;2024-02-26T12:25:26;7.07;;;4.88;;
37693;SDS011;23531;50.122;8.644;2024-02-26T12:27:28;6.55;;;4.35;;
37693;SDS011;23531;50.122;8.644;2024-02-26T12:29:30;6.30;;;4.32;;
37693;SDS011;23531;50.122;8.644;2024-02-26T12:31:32;5.57;;;4.68;;
37693;SDS011;23531;50.122;8.644;2024-02-26T12:33:33;8.20;;;5.80;;
37693;SDS011;23531;50.122;8.644;2024-02-26T12:35:35;6.75;;;4.60;;
37693;SDS011;23531;50.122;8.644;2024-02-26T12:37:37;8.25;;;4.65;;
37693;SDS011;23531;50.122;8.644;2024-02-26T12:39:38;4.35;;;3.95;;
37693;SDS011;23531;50.122;8.644;2024-02-26T12:41:40;6.13;;;4.85;;
37693;SDS011;23531;50.122;8.644;2024-02-26T12:43:46;6.55;;;4.13;;
37693;SDS011;23531;50.122;8.644;2024-02-26T12:45:49;6.45;;;4.82;;
37693;SDS011;23531;50.122;8.644;2024-02-26T12:47:50;6.93;;;4.18;;
37693;SDS011;23531;50.122;8.644;2024-02-26T12:49:51;6.70;;;4.80;;
37693;SDS011;23531;50.122;8.644;2024-02-26T12:51:52;7.50;;;4.43;;
37693;SDS011;23531;50.122;8.644;2024-02-26T12:53:54;7.18;;;4.80;;
37693;SDS011;23531;50.122;8.644;2024-02-26T12:55:57;5.38;;;4.00;;
37693;SDS011;23531;50.122;8.644;2024-02-26T12:57:58;7.38;;;4.43;;
37693;SDS011;23531;50.122;8.644;2024-02-26T13:00:00;8.07;;;5.25;;
37693;SDS011;23531;50.122;8.644;2024-02-26T13:02:05;7.43;;;4.50;;
37693;SDS011;23531;50.122;8.644;2024-02-26T13:04:07;6.90;;;4.10;;
37693;SDS011;23531;50.122;8.644;2024-02-26T13:06:08;8.07;;;4.45;;
37693;SDS011;23531;50.122;8.644;2024-02-26T13:08:09;7.10;;;5.10;;
37693;SDS011;23531;50.122;8.644;2024-02-26T13:10:11;5.60;;;4.45;;
37693;SDS011;23531;50.122;8.644;2024-02-26T13:12:12;6.57;;;4.50;;
37693;SDS011;23531;50.122;8.644;2024-02-26T13:14:18;7.68;;;4.93;;
37693;SDS011;23531;50.122;8.644;2024-02-26T13:16:20;6.78;;;4.88;;
37693;SDS011;23531;50.122;8.644;2024-02-26T13:18:27;6.03;;;3.92;;
37693;SDS011;23531;50.122;8.644;2024-02-26T13:20:30;9.82;;;4.82;;
37693;SDS011;23531;50.122;8.644;2024-02-26T13:22:34;6.53;;;3.75;;
37693;SDS011;23531;50.122;8.644;2024-02-26T13:24:35;11.55;;;4.43;;
37693;SDS011;23531;50.122;8.644;2024-02-26T13:26:37;5.43;;;4.35;;
37693;SDS011;23531;50.122;8.644;2024-02-26T13:28:39;7.00;;;5.07;;
37693;SDS011;23531;50.122;8.644;2024-02-26T13:30:41;6.40;;;4.50;;
37693;SDS011;23531;50.122;8.644;2024-02-26T13:32:43;8.20;;;4.45;;
37693;SDS011;23531;50.122;8.644;2024-02-26T13:34:45;6.70;;;4.22;;
37693;SDS011;23531;50.122;8.644;2024-02-26T13:36:47;10.00;;;5.40;;
37693;SDS011;23531;50.122;8.644;2024-02-26T13:38:51;5.03;;;3.63;;
37693;SDS011;23531;50.122;8.644;2024-02-26T13:40:53;8.02;;;4.40;;
37693;SDS011;23531;50.122;8.644;2024-02-26T13:42:54;6.55;;;4.35;;
37693;SDS011;23531;50.122;8.644;2024-02-26T13:44:55;5.60;;;4.22;;
37693;SDS011;23531;50.122;8.644;2024-02-26T13:46:56;5.50;;;4.35;;
37693;SDS011;23531;50.122;8.644;2024-02-26T13:48:57;7.30;;;4.68;;
37693;SDS011;23531;50.122;8.644;2024-02-26T13:51:00;7.03;;;4.63;;
37693;SDS011;23531;50.122;8.644;2024-02-26T13:53:01;5.68;;;4.22;;
37693;SDS011;23531;50.122;8.644;2024-02-26T13:55:04;6.75;;;4.70;;
37693;SDS011;23531;50.122;8.644;2024-02-26T13:57:07;5.68;;;4.18;;
37693;SDS011;23531;50.122;8.644;2024-02-26T13:59:09;7.32;;;4.55;;
37693;SDS011;23531;50.122;8.644;2024-02-26T14:01:10;6.18;;;4.07;;
37693;SDS011;23531;50.122;8.644;2024-02-26T14:03:12;7.07;;;4.80;;
37693;SDS011;23531;50.122;8.644;2024-02-26T14:05:13;5.43;;;4.18;;
37693;SDS011;23531;50.122;8.644;2024-02-26T14:07:15;7.00;;;4.30;;
37693;SDS011;23531;50.122;8.644;2024-02-26T14:09:17;7.68;;;4.30;;
37693;SDS011;23531;50.122;8.644;2024-02-26T14:11:19;6.25;;;4.35;;
37693;SDS011;23531;50.122;8.644;2024-02-26T14:13:21;8.88;;;4.20;;
37693;SDS011;23531;50.122;8.644;2024-02-26T14:15:22;6.40;;;4.10;;
37693;SDS011;23531;50.122;8.644;2024-02-26T14:17:24;7.28;;;4.18;;
37693;SDS011;23531;50.122;8.644;2024-02-26T14:19:26;5.82;;;4.10;;
37693;SDS011;23531;50.122;8.644;2024-02-26T14:21:28;6.95;;;4.55;;
37693;SDS011;23531;50.122;8.644;2024-02-26T14:23:32;6.00;;;4.35;;
37693;SDS011;23531;50.122;8.644;2024-02-26T14:25:32;7.85;;;4.80;;
37693;SDS011;23531;50.122;8.644;2024-02-26T14:27:34;6.35;;;4.88;;
37693;SDS011;23531;50.122;8.644;2024-02-26T14:29:35;5.68;;;4.40;;
37693;SDS011;23531;50.122;8.644;2024-02-26T14:31:36;6.80;;;4.97;;
37693;SDS011;23531;50.122;8.644;2024-02-26T14:33:38;6.72;;;4.63;;
37693;SDS011;23531;50.122;8.644;2024-02-26T14:35:40;5.55;;;4.00;;
37693;SDS011;23531;50.122;8.644;2024-02-26T14:37:42;11.55;;;4.65;;
37693;SDS011;23531;50.122;8.644;2024-02-26T14:39:45;5.57;;;4.07;;
37693;SDS011;23531;50.122;8.644;2024-02-26T14:41:47;8.13;;;4.13;;
37693;SDS011;23531;50.122;8.644;2024-02-26T14:43:49;6.18;;;3.72;;
37693;SDS011;23531;50.122;8.644;2024-02-26T14:45:50;5.82;;;3.85;;
37693;SDS011;23531;50.122;8.644;2024-02-26T14:47:51;6.30;;;3.88;;
37693;SDS011;23531;50.122;8.644;2024-02-26T14:49:52;8.50;;;5.45;;
37693;SDS011;23531;50.122;8.644;2024-02-26T14:51:54;6.20;;;4.18;;
37693;SDS011;23531;50.122;8.644;2024-02-26T14:53:55;4.95;;;3.70;;
37693;SDS011;23531;50.122;8.644;2024-02-26T14:55:57;6.32;;;4.25;;
37693;SDS011;23531;50.122;8.644;2024-02-26T14:57:58;5.30;;;4.03;;
37693;SDS011;23531;50.122;8.644;2024-02-26T15:00:00;4.57;;;3.85;;
37693;SDS011;23531;50.122;8.644;2024-02-26T15:02:01;7.60;;;4.25;;
37693;SDS011;23531;50.122;8.644;2024-02-26T15:04:01;5.93;;;4.05;;
37693;SDS011;23531;50.122;8.644;2024-02-26T15:06:04;6.70;;;4.50;;
37693;SDS011;23531;50.122;8.644;2024-02-26T15:08:05;5.72;;;4.20;;
37693;SDS011;23531;50.122;8.644;2024-02-26T15:10:09;11.80;;;5.07;;
37693;SDS011;23531;50.122;8.644;2024-02-26T15:12:12;4.97;;;4.18;;
37693;SDS011;23531;50.122;8.644;2024-02-26T15:14:13;7.53;;;4.55;;
37693;SDS011;23531;50.122;8.644;2024-02-26T15:16:18;4.95;;;3.67;;
37693;SDS011;23531;50.122;8.644;2024-02-26T15:18:20;8.23;;;4.10;;
37693;SDS011;23531;50.122;8.644;2024-02-26T15:20:22;5.72;;;4.15;;
37693;SDS011;23531;50.122;8.644;2024-02-26T15:22:23;6.20;;;3.72;;
37693;SDS011;23531;50.122;8.644;2024-02-26T15:24:24;4.88;;;3.78;;
37693;SDS011;23531;50.122;8.644;2024-02-26T15:26:27;5.75;;;3.83;;
37693;SDS011;23531;50.122;8.644;2024-02-26T15:28:30;8.02;;;3.88;;
37693;SDS011;23531;50.122;8.644;2024-02-26T15:30:31;4.75;;;3.42;;
37693;SDS011;23531;50.122;8.644;2024-02-26T15:32:33;5.82;;;3.25;;
37693;SDS011;23531;50.122;8.644;2024-02-26T15:34:33;9.95;;;4.35;;
37693;SDS011;23531;50.122;8.644;2024-02-26T15:36:35;4.57;;;3.50;;
37693;SDS011;23531;50.122;8.644;2024-02-26T15:38:35;4.88;;;3.50;;
37693;SDS011;23531;50.122;8.644;2024-02-26T15:40:37;5.90;;;3.05;;
37693;SDS011;23531;50.122;8.644;2024-02-26T15:42:38;6.13;;;3.60;;
37693;SDS011;23531;50.122;8.644;2024-02-26T15:44:41;5.32;;;3.10;;
37693;SDS011;23531;50.122;8.644;2024-02-26T15:46:43;5.75;;;3.83;;
37693;SDS011;23531;50.122;8.644;2024-02-26T15:48:44;5.63;;;3.40;;
37693;SDS011;23531;50.122;8.644;2024-02-26T15:50:45;6.45;;;3.40;;
37693;SDS011;23531;50.122;8.644;2024-02-26T15:52:47;4.25;;;3.20;;
37693;SDS011;23531;50.122;8.644;2024-02-26T15:54:48;6.00;;;3.40;;
37693;SDS011;23531;50.122;8.644;2024-02-26T15:56:51;4.32;;;3.00;;
37693;SDS011;23531;50.122;8.644;2024-02-26T15:58:52;4.38;;;3.15;;
37693;SDS011;23531;50.122;8.644;2024-02-26T16:00:55;4.63;;;3.03;;
37693;SDS011;23531;50.122;8.644;2024-02-26T16:02:56;5.50;;;3.88;;
37693;SDS011;23531;50.122;8.644;2024-02-26T16:04:57;5.72;;;3.85;;
37693;SDS011;23531;50.122;8.644;2024-02-26T16:06:59;5.43;;;3.35;;
37693;SDS011;23531;50.122;8.644;2024-02-26T16:09:07;5.60;;;3.63;;
37693;SDS011;23531;50.122;8.644;2024-02-26T16:11:08;6.57;;;2.80;;
37693;SDS011;23531;50.122;8.644;2024-02-26T16:13:10;7.13;;;3.35;;
37693;SDS011;23531;50.122;8.644;2024-02-26T16:15:11;5.15;;;3.03;;
37693;SDS011;23531;50.122;8.644;2024-02-26T16:17:14;5.47;;;3.22;;
37693;SDS011;23531;50.122;8.644;2024-02-26T16:19:20;4.28;;;3.13;;
37693;SDS011;23531;50.122;8.644;2024-02-26T16:21:22;4.32;;;3.00;;
37693;SDS011;23531;50.122;8.644;2024-02-26T16:23:24;5.10;;;3.15;;
37693;SDS011;23531;50.122;8.644;2024-02-26T16:25:25;5.03;;;3.58;;
37693;SDS011;23531;50.122;8.644;2024-02-26T16:27:27;4.97;;;3.67;;
37693;SDS011;23531;50.122;8.644;2024-02-26T16:29:28;4.45;;;3.33;;
37693;SDS011;23531;50.122;8.644;2024-02-26T16:31:30;5.50;;;3.72;;
37693;SDS011;23531;50.122;8.644;2024-02-26T16:33:33;4.72;;;3.50;;
37693;SDS011;23531;50.122;8.644;2024-02-26T16:35:34;5.15;;;3.55;;
37693;SDS011;23531;50.122;8.644;2024-02-26T16:37:35;4.85;;;3.80;;
37693;SDS011;23531;50.122;8.644;2024-02-26T16:39:36;6.35;;;3.65;;
37693;SDS011;23531;50.122;8.644;2024-02-26T16:41:39;7.85;;;3.58;;
37693;SDS011;23531;50.122;8.644;2024-02-26T16:43:39;7.63;;;3.88;;
37693;SDS011;23531;50.122;8.644;2024-02-26T16:45:40;6.38;;;3.60;;
37693;SDS011;23531;50.122;8.644;2024-02-26T16:47:42;5.13;;;3.58;;
37693;SDS011;23531;50.122;8.644;2024-02-26T16:49:45;4.15;;;3.30;;
37693;SDS011;23531;50.122;8.644;2024-02-26T16:51:46;4.53;;;3.60;;
37693;SDS011;23531;50.122;8.644;2024-02-26T16:53:48;5.63;;;3.60;;
37693;SDS011;23531;50.122;8.644;2024-02-26T16:55:49;4.82;;;3.65;;
37693;SDS011;23531;50.122;8.644;2024-02-26T16:57:51;7.72;;;3.90;;
37693;SDS011;23531;50.122;8.644;2024-02-26T16:59:52;9.20;;;6.55;;
37693;SDS011;23531;50.122;8.644;2024-02-26T17:01:53;6.95;;;4.90;;
37693;SDS011;23531;50.122;8.644;2024-02-26T17:03:55;7.75;;;4.95;;
37693;SDS011;23531;50.122;8.644;2024-02-26T17:05:58;8.90;;;4.20;;
37693;SDS011;23531;50.122;8.644;2024-02-26T17:07:59;7.55;;;4.88;;
37693;SDS011;23531;50.122;8.644;2024-02-26T17:10:01;10.15;;;6.03;;
37693;SDS011;23531;50.122;8.644;2024-02-26T17:12:03;9.35;;;5.68;;
37693;SDS011;23531;50.122;8.644;2024-02-26T17:14:05;5.65;;;3.80;;
37693;SDS011;23531;50.122;8.644;2024-02-26T17:16:07;6.88;;;4.18;;
37693;SDS011;23531;50.122;8.644;2024-02-26T17:18:08;4.78;;;3.78;;
37693;SDS011;23531;50.122;8.644;2024-02-26T17:20:12;7.90;;;4.38;;
37693;SDS011;23531;50.122;8.644;2024-02-26T17:22:15;6.57;;;4.13;;
37693;SDS011;23531;50.122;8.644;2024-02-26T17:24:17;7.32;;;4.10;;
37693;SDS011;23531;50.122;8.644;2024-02-26T17:26:18;5.45;;;3.70;;
37693;SDS011;23531;50.122;8.644;2024-02-26T17:28:20;6.40;;;3.97;;
37693;SDS011;23531;50.122;8.644;2024-02-26T17:30:21;6.00;;;4.10;;
37693;SDS011;23531;50.122;8.644;2024-02-26T17:32:23;4.55;;;3.10;;
37693;SDS011;23531;50.122;8.644;2024-02-26T17:34:24;5.00;;;4.13;;
37693;SDS011;23531;50.122;8.644;2024-02-26T17:36:25;7.47;;;3.42;;
37693;SDS011;23531;50.122;8.644;2024-02-26T17:38:28;5.65;;;4.18;;
37693;SDS011;23531;50.122;8.644;2024-02-26T17:40:29;6.10;;;3.50;;
37693;SDS011;23531;50.122;8.644;2024-02-26T17:42:31;5.70;;;3.95;;
37693;SDS011;23531;50.122;8.644;2024-02-26T17:44:34;5.10;;;3.47;;
37693;SDS011;23531;50.122;8.644;2024-02-26T17:46:37;4.90;;;3.67;;
37693;SDS011;23531;50.122;8.644;2024-02-26T17:48:38;5.45;;;3.80;;
37693;SDS011;23531;50.122;8.644;2024-02-26T17:50:42;7.07;;;4.00;;
37693;SDS011;23531;50.122;8.644;2024-02-26T17:52:43;7.45;;;4.40;;
37693;SDS011;23531;50.122;8.644;2024-02-26T17:54:46;7.00;;;4.35;;
37693;SDS011;23531;50.122;8.644;2024-02-26T17:56:47;6.57;;;4.65;;
37693;SDS011;23531;50.122;8.644;2024-02-26T17:58:51;6.40;;;3.70;;
37693;SDS011;23531;50.122;8.644;2024-02-26T18:00:52;4.57;;;4.03;;
37693;SDS011;23531;50.122;8.644;2024-02-26T18:02:54;6.47;;;3.78;;
37693;SDS011;23531;50.122;8.644;2024-02-26T18:04:56;5.43;;;3.42;;
37693;SDS011;23531;50.122;8.644;2024-02-26T18:06:56;11.77;;;7.00;;
37693;SDS011;23531;50.122;8.644;2024-02-26T18:08:58;13.57;;;8.13;;
37693;SDS011;23531;50.122;8.644;2024-02-26T18:11:01;7.18;;;4.93;;
37693;SDS011;23531;50.122;8.644;2024-02-26T18:13:02;8.38;;;5.45;;
37693;SDS011;23531;50.122;8.644;2024-02-26T18:15:04;5.63;;;3.75;;
37693;SDS011;23531;50.122;8.644;2024-02-26T18:17:07;5.35;;;3.70;;
37693;SDS011;23531;50.122;8.644;2024-02-26T18:19:09;6.03;;;3.20;;
37693;SDS011;23531;50.122;8.644;2024-02-26T18:21:10;4.13;;;3.20;;
37693;SDS011;23531;50.122;8.644;2024-02-26T18:23:12;4.35;;;3.30;;
37693;SDS011;23531;50.122;8.644;2024-02-26T18:25:15;5.35;;;3.53;;
37693;SDS011;23531;50.122;8.644;2024-02-26T18:27:18;4.88;;;3.53;;
37693;SDS011;23531;50.122;8.644;2024-02-26T18:29:20;6.13;;;3.60;;
37693;SDS011;23531;50.122;8.644;2024-02-26T18:31:22;6.28;;;3.30;;
37693;SDS011;23531;50.122;8.644;2024-02-26T18:33:22;4.30;;;3.63;;
37693;SDS011;23531;50.122;8.644;2024-02-26T18:35:24;5.82;;;3.92;;
37693;SDS011;23531;50.122;8.644;2024-02-26T18:37:25;6.03;;;3.80;;
37693;SDS011;23531;50.122;8.644;2024-02-26T18:39:26;4.18;;;3.00;;
37693;SDS011;23531;50.122;8.644;2024-02-26T18:41:28;3.88;;;3.10;;
37693;SDS011;23531;50.122;8.644;2024-02-26T18:43:31;4.95;;;3.50;;
37693;SDS011;23531;50.122;8.644;2024-02-26T18:45:33;7.50;;;3.78;;
37693;SDS011;23531;50.122;8.644;2024-02-26T18:47:34;6.70;;;3.78;;
37693;SDS011;23531;50.122;8.644;2024-02-26T18:49:38;5.70;;;4.20;;
37693;SDS011;23531;50.122;8.644;2024-02-26T18:51:40;4.95;;;3.70;;
37693;SDS011;23531;50.122;8.644;2024-02-26T18:53:42;6.75;;;4.20;;
37693;SDS011;23531;50.122;8.644;2024-02-26T18:55:44;7.95;;;4.63;;
37693;SDS011;23531;50.122;8.644;2024-02-26T18:57:45;5.32;;;4.32;;
37693;SDS011;23531;50.122;8.644;2024-02-26T18:59:48;9.98;;;4.78;;
37693;SDS011;23531;50.122;8.644;2024-02-26T19:01:49;7.80;;;4.90;;
37693;SDS011;23531;50.122;8.644;2024-02-26T19:03:51;7.38;;;5.00;;
37693;SDS011;23531;50.122;8.644;2024-02-26T19:05:52;6.10;;;4.70;;
37693;SDS011;23531;50.122;8.644;2024-02-26T19:07:54;7.82;;;5.22;;
37693;SDS011;23531;50.122;8.644;2024-02-26T19:09:58;10.93;;;5.40;;
37693;SDS011;23531;50.122;8.644;2024-02-26T19:11:58;7.25;;;5.57;;
37693;SDS011;23531;50.122;8.644;2024-02-26T19:14:00;6.68;;;4.85;;
37693;SDS011;23531;50.122;8.644;2024-02-26T19:16:03;10.63;;;5.75;;
37693;SDS011;23531;50.122;8.644;2024-02-26T19:18:05;8.38;;;5.95;;
37693;SDS011;23531;50.122;8.644;2024-02-26T19:20:07;11.13;;;6.75;;
37693;SDS011;23531;50.122;8.644;2024-02-26T19:22:09;9.20;;;6.30;;
37693;SDS011;23531;50.122;8.644;2024-02-26T19:24:11;10.73;;;6.78;;
37693;SDS011;23531;50.122;8.644;2024-02-26T19:26:14;11.65;;;6.10;;
37693;SDS011;23531;50.122;8.644;2024-02-26T19:28:15;9.65;;;6.50;;
37693;SDS011;23531;50.122;8.644;2024-02-26T19:30:17;10.07;;;6.00;;
37693;SDS011;23531;50.122;8.644;2024-02-26T19:32:20;11.23;;;6.68;;
37693;SDS011;23531;50.122;8.644;2024-02-26T19:34:21;8.70;;;6.15;;
37693;SDS011;23531;50.122;8.644;2024-02-26T19:36:23;12.30;;;6.82;;
37693;SDS011;23531;50.122;8.644;2024-02-26T19:38:24;9.13;;;6.38;;
37693;SDS011;23531;50.122;8.644;2024-02-26T19:40:25;11.05;;;6.88;;
37693;SDS011;23531;50.122;8.644;2024-02-26T19:42:27;9.20;;;6.30;;
37693;SDS011;23531;50.122;8.644;2024-02-26T19:44:29;10.57;;;6.57;;
37693;SDS011;23531;50.122;8.644;2024-02-26T19:46:30;11.02;;;7.40;;
37693;SDS011;23531;50.122;8.644;2024-02-26T19:48:33;11.77;;;6.72;;
37693;SDS011;23531;50.122;8.644;2024-02-26T19:50:34;12.20;;;7.80;;
37693;SDS011;23531;50.122;8.644;2024-02-26T19:52:36;10.20;;;7.25;;
37693;SDS011;23531;50.122;8.644;2024-02-26T19:54:37;13.35;;;7.57;;
37693;SDS011;23531;50.122;8.644;2024-02-26T19:56:39;10.35;;;6.85;;
37693;SDS011;23531;50.122;8.644;2024-02-26T19:58:40;11.77;;;7.43;;
37693;SDS011;23531;50.122;8.644;2024-02-26T20:00:42;12.80;;;7.75;;
37693;SDS011;23531;50.122;8.644;2024-02-26T20:02:43;12.52;;;8.00;;
37693;SDS011;23531;50.122;8.644;2024-02-26T20:04:46;14.68;;;7.45;;
37693;SDS011;23531;50.122;8.644;2024-02-26T20:06:47;13.18;;;8.40;;
37693;SDS011;23531;50.122;8.644;2024-02-26T20:08:49;13.73;;;8.43;;
37693;SDS011;23531;50.122;8.644;2024-02-26T20:10:50;13.13;;;8.25;;
37693;SDS011;23531;50.122;8.644;2024-02-26T20:12:52;12.75;;;8.45;;
37693;SDS011;23531;50.122;8.644;2024-02-26T20:14:55;15.20;;;9.27;;
37693;SDS011;23531;50.122;8.644;2024-02-26T20:16:56;13.05;;;9.00;;
37693;SDS011;23531;50.122;8.644;2024-02-26T20:18:59;41.63;;;22.00;;
37693;SDS011;23531;50.122;8.644;2024-02-26T20:21:02;18.15;;;9.13;;
37693;SDS011;23531;50.122;8.644;2024-02-26T20:23:02;14.52;;;9.07;;
37693;SDS011;23531;50.122;8.644;2024-02-26T20:25:04;12.73;;;9.13;;
37693;SDS011;23531;50.122;8.644;2024-02-26T20:27:06;13.57;;;9.38;;
37693;SDS011;23531;50.122;8.644;2024-02-26T20:29:10;14.65;;;9.32;;
37693;SDS011;23531;50.122;8.644;2024-02-26T20:31:11;14.05;;;9.70;;
37693;SDS011;23531;50.122;8.644;2024-02-26T20:33:13;14.98;;;9.82;;
37693;SDS011;23531;50.122;8.644;2024-02-26T20:35:14;14.95;;;9.52;;
37693;SDS011;23531;50.122;8.644;2024-02-26T20:37:17;16.42;;;10.63;;
37693;SDS011;23531;50.122;8.644;2024-02-26T20:39:21;15.85;;;10.07;;
37693;SDS011;23531;50.122;8.644;2024-02-26T20:41:22;15.32;;;10.77;;
37693;SDS011;23531;50.122;8.644;2024-02-26T20:43:24;17.38;;;11.80;;
37693;SDS011;23531;50.122;8.644;2024-02-26T20:45:25;16.80;;;11.55;;
37693;SDS011;23531;50.122;8.644;2024-02-26T20:47:27;17.35;;;10.85;;
37693;SDS011;23531;50.122;8.644;2024-02-26T20:49:28;17.25;;;10.90;;
37693;SDS011;23531;50.122;8.644;2024-02-26T20:51:29;19.25;;;11.90;;
37693;SDS011;23531;50.122;8.644;2024-02-26T20:53:32;16.55;;;11.32;;
37693;SDS011;23531;50.122;8.644;2024-02-26T20:55:36;18.65;;;11.43;;
37693;SDS011;23531;50.122;8.644;2024-02-26T20:57:38;18.48;;;11.88;;
37693;SDS011;23531;50.122;8.644;2024-02-26T20:59:39;17.20;;;11.45;;
37693;SDS011;23531;50.122;8.644;2024-02-26T21:01:41;16.67;;;11.88;;
37693;SDS011;23531;50.122;8.644;2024-02-26T21:03:43;19.40;;;13.05;;
37693;SDS011;23531;50.122;8.644;2024-02-26T21:05:44;18.77;;;12.43;;
37693;SDS011;23531;50.122;8.644;2024-02-26T21:07:46;19.40;;;13.18;;
37693;SDS011;23531;50.122;8.644;2024-02-26T21:09:49;36.20;;;21.98;;
37693;SDS011;23531;50.122;8.644;2024-02-26T21:11:52;21.35;;;13.45;;
37693;SDS011;23531;50.122;8.644;2024-02-26T21:13:54;23.38;;;13.38;;
37693;SDS011;23531;50.122;8.644;2024-02-26T21:15:55;20.10;;;13.35;;
37693;SDS011;23531;50.122;8.644;2024-02-26T21:17:57;21.80;;;13.77;;
37693;SDS011;23531;50.122;8.644;2024-02-26T21:19:58;21.50;;;13.82;;
37693;SDS011;23531;50.122;8.644;2024-02-26T21:22:00;21.08;;;13.60;;
37693;SDS011;23531;50.122;8.644;2024-02-26T21:24:01;20.42;;;14.20;;
37693;SDS011;23531;50.122;8.644;2024-02-26T21:26:03;21.85;;;15.02;;
37693;SDS011;23531;50.122;8.644;2024-02-26T21:28:05;22.50;;;14.50;;
37693;SDS011;23531;50.122;8.644;2024-02-26T21:30:07;22.95;;;15.02;;
37693;SDS011;23531;50.122;8.644;2024-02-26T21:32:09;21.75;;;13.52;;